SCCH

Gral. Bernardo O´Higgins Airport

Airport
ICAO code
SCCH
IATA Code
YAI
Summary
ICAO Region
CARSAM
ICAO Territory
Location

Chillan, Bio-Bio

Serving
Chillan
Elevation
495 ft
Coordinates
36° 34' 57" S , 72° 1' 53" W
KCC
Csa
Metar
Observation
SCCH 131500Z 03014KT 9999 BKN025 13/08 Q1020
Station
Chillan
Date/Time
2022-08-13 15:00:00
Wind direction
30°
Wind speed
14 kts
Lowest cloud amount
broken clouds
Temperature
13°C
Dew point
8°C
Humidity
71%
QNH
1020 hPa
Weather condition
n/a

Airport located at Chilean in the Nuble province of the Bio-Bio region on Chile.

Climatology

Mediterranean climate (Köppen climate classification Csa)

Runways

Designator Length Width Surface Rops
4/22 1750 30 ASP No/No

Airport map

Aerial View

SKYbrary Partners:

Safety knowledge contributed by: